sensor_id;sensor_type;location;lat;lon;timestamp;pressure;altitude;pressure_sealevel;temperature;humidity
84356;BME280;74539;43.518;1.504;2024-03-02T00:00:02;98912.44;;;20.11;39.03
84356;BME280;74539;43.518;1.504;2024-03-02T00:02:40;98921.03;;;20.13;39.06
84356;BME280;74539;43.518;1.504;2024-03-02T00:05:06;98926.47;;;20.13;38.98
84356;BME280;74539;43.518;1.504;2024-03-02T00:07:31;98927.13;;;20.10;38.51
84356;BME280;74539;43.518;1.504;2024-03-02T00:09:57;98936.72;;;20.07;39.07
84356;BME280;74539;43.518;1.504;2024-03-02T00:12:23;98947.69;;;20.11;38.84
84356;BME280;74539;43.518;1.504;2024-03-02T00:14:48;98929.38;;;20.08;39.05
84356;BME280;74539;43.518;1.504;2024-03-02T00:17:21;98916.03;;;20.03;38.73
84356;BME280;74539;43.518;1.504;2024-03-02T00:19:50;98936.72;;;20.07;38.64
84356;BME280;74539;43.518;1.504;2024-03-02T00:22:15;98931.63;;;20.06;39.45
84356;BME280;74539;43.518;1.504;2024-03-02T00:24:41;98929.16;;;20.01;38.85
84356;BME280;74539;43.518;1.504;2024-03-02T00:27:07;98930.72;;;20.02;38.32
84356;BME280;74539;43.518;1.504;2024-03-02T00:29:32;98937.72;;;20.03;38.71
84356;BME280;74539;43.518;1.504;2024-03-02T00:32:01;98935.34;;;20.01;38.59
84356;BME280;74539;43.518;1.504;2024-03-02T00:34:26;98928.69;;;19.99;38.42
84356;BME280;74539;43.518;1.504;2024-03-02T00:36:52;98927.09;;;19.98;39.22
84356;BME280;74539;43.518;1.504;2024-03-02T00:39:18;98920.75;;;19.94;39.15
84356;BME280;74539;43.518;1.504;2024-03-02T00:41:43;98928.88;;;19.94;38.62
84356;BME280;74539;43.518;1.504;2024-03-02T00:44:12;98930.50;;;19.95;39.38
84356;BME280;74539;43.518;1.504;2024-03-02T00:46:39;98925.25;;;19.89;39.03
84356;BME280;74539;43.518;1.504;2024-03-02T00:49:12;98924.94;;;19.91;39.02
84356;BME280;74539;43.518;1.504;2024-03-02T00:51:46;98919.53;;;19.91;39.46
84356;BME280;74539;43.518;1.504;2024-03-02T00:54:14;98917.13;;;19.89;39.29
84356;BME280;74539;43.518;1.504;2024-03-02T00:56:41;98909.34;;;19.88;38.72
84356;BME280;74539;43.518;1.504;2024-03-02T00:59:07;98913.06;;;19.83;38.87
84356;BME280;74539;43.518;1.504;2024-03-02T01:01:33;98923.56;;;19.85;39.50
84356;BME280;74539;43.518;1.504;2024-03-02T01:03:59;98910.53;;;19.78;39.03
84356;BME280;74539;43.518;1.504;2024-03-02T01:06:24;98913.72;;;19.80;39.10
84356;BME280;74539;43.518;1.504;2024-03-02T01:08:50;98916.75;;;19.79;39.84
84356;BME280;74539;43.518;1.504;2024-03-02T01:11:17;98917.09;;;19.77;38.78
84356;BME280;74539;43.518;1.504;2024-03-02T01:13:43;98912.94;;;19.80;38.94
84356;BME280;74539;43.518;1.504;2024-03-02T01:16:09;98910.09;;;19.76;38.97
84356;BME280;74539;43.518;1.504;2024-03-02T01:18:34;98890.31;;;19.76;39.25
84356;BME280;74539;43.518;1.504;2024-03-02T01:20:59;98886.81;;;19.75;39.56
84356;BME280;74539;43.518;1.504;2024-03-02T01:23:25;98887.50;;;19.72;38.70
84356;BME280;74539;43.518;1.504;2024-03-02T01:25:51;98880.13;;;19.73;39.20
84356;BME280;74539;43.518;1.504;2024-03-02T01:28:17;98871.22;;;19.72;39.20
84356;BME280;74539;43.518;1.504;2024-03-02T01:30:44;98866.94;;;19.71;38.70
84356;BME280;74539;43.518;1.504;2024-03-02T01:33:09;98855.31;;;19.71;39.21
84356;BME280;74539;43.518;1.504;2024-03-02T01:35:36;98855.19;;;19.67;38.74
84356;BME280;74539;43.518;1.504;2024-03-02T01:38:02;98860.63;;;19.67;40.14
84356;BME280;74539;43.518;1.504;2024-03-02T01:40:28;98856.31;;;19.66;39.60
84356;BME280;74539;43.518;1.504;2024-03-02T01:42:54;98859.47;;;19.68;39.61
84356;BME280;74539;43.518;1.504;2024-03-02T01:45:21;98846.59;;;19.65;38.90
84356;BME280;74539;43.518;1.504;2024-03-02T01:47:47;98850.41;;;19.64;39.47
84356;BME280;74539;43.518;1.504;2024-03-02T01:50:12;98839.00;;;19.58;38.74
84356;BME280;74539;43.518;1.504;2024-03-02T01:52:38;98832.91;;;19.61;38.55
84356;BME280;74539;43.518;1.504;2024-03-02T01:55:04;98826.22;;;19.59;39.03
84356;BME280;74539;43.518;1.504;2024-03-02T01:57:31;98832.13;;;19.61;39.74
84356;BME280;74539;43.518;1.504;2024-03-02T01:59:56;98823.84;;;19.57;39.63
84356;BME280;74539;43.518;1.504;2024-03-02T02:02:22;98823.06;;;19.57;40.19
84356;BME280;74539;43.518;1.504;2024-03-02T02:04:47;98820.59;;;19.52;38.90
84356;BME280;74539;43.518;1.504;2024-03-02T02:07:13;98834.56;;;19.54;39.11
84356;BME280;74539;43.518;1.504;2024-03-02T02:09:41;98837.28;;;19.54;39.17
84356;BME280;74539;43.518;1.504;2024-03-02T02:12:07;98831.41;;;19.52;39.71
84356;BME280;74539;43.518;1.504;2024-03-02T02:14:33;98823.03;;;19.44;38.81
84356;BME280;74539;43.518;1.504;2024-03-02T02:16:59;98825.06;;;19.48;39.95
84356;BME280;74539;43.518;1.504;2024-03-02T02:19:24;98828.25;;;19.50;39.41
84356;BME280;74539;43.518;1.504;2024-03-02T02:21:50;98829.38;;;19.49;38.80
84356;BME280;74539;43.518;1.504;2024-03-02T02:24:15;98828.91;;;19.47;39.07
84356;BME280;74539;43.518;1.504;2024-03-02T02:26:40;98827.34;;;19.45;38.34
84356;BME280;74539;43.518;1.504;2024-03-02T02:29:06;98818.75;;;19.43;39.80
84356;BME280;74539;43.518;1.504;2024-03-02T02:31:38;98807.91;;;19.43;40.04
84356;BME280;74539;43.518;1.504;2024-03-02T02:34:04;98798.53;;;19.41;39.10
84356;BME280;74539;43.518;1.504;2024-03-02T02:36:30;98799.50;;;19.36;39.72
84356;BME280;74539;43.518;1.504;2024-03-02T02:38:56;98793.00;;;19.37;38.80
84356;BME280;74539;43.518;1.504;2024-03-02T02:41:21;98787.56;;;19.37;40.29
84356;BME280;74539;43.518;1.504;2024-03-02T02:43:47;98779.78;;;19.36;39.89
84356;BME280;74539;43.518;1.504;2024-03-02T02:46:13;98779.78;;;19.36;39.71
84356;BME280;74539;43.518;1.504;2024-03-02T02:48:38;98770.75;;;19.32;39.48
84356;BME280;74539;43.518;1.504;2024-03-02T02:51:04;98766.13;;;19.32;39.09
84356;BME280;74539;43.518;1.504;2024-03-02T02:53:29;98757.53;;;19.30;39.91
84356;BME280;74539;43.518;1.504;2024-03-02T02:55:54;98753.72;;;19.31;39.58
84356;BME280;74539;43.518;1.504;2024-03-02T02:58:20;98746.25;;;19.28;39.47
84356;BME280;74539;43.518;1.504;2024-03-02T03:00:45;98739.22;;;19.27;39.10
84356;BME280;74539;43.518;1.504;2024-03-02T03:03:11;98736.22;;;19.29;39.11
84356;BME280;74539;43.518;1.504;2024-03-02T03:05:36;98738.44;;;19.27;39.28
84356;BME280;74539;43.518;1.504;2024-03-02T03:08:02;98731.47;;;19.26;40.37
84356;BME280;74539;43.518;1.504;2024-03-02T03:10:27;98734.50;;;19.24;39.21
84356;BME280;74539;43.518;1.504;2024-03-02T03:12:53;98716.22;;;19.21;39.11
84356;BME280;74539;43.518;1.504;2024-03-02T03:15:21;98710.34;;;19.19;39.62
84356;BME280;74539;43.518;1.504;2024-03-02T03:17:46;98708.75;;;19.18;39.59
84356;BME280;74539;43.518;1.504;2024-03-02T03:20:12;98701.88;;;19.20;39.95
84356;BME280;74539;43.518;1.504;2024-03-02T03:22:38;98694.09;;;19.19;39.56
84356;BME280;74539;43.518;1.504;2024-03-02T03:25:04;98688.69;;;19.19;39.52
84356;BME280;74539;43.518;1.504;2024-03-02T03:27:30;98693.31;;;19.18;39.95
84356;BME280;74539;43.518;1.504;2024-03-02T03:29:55;98681.25;;;19.16;39.41
84356;BME280;74539;43.518;1.504;2024-03-02T03:32:21;98676.94;;;19.15;39.08
84356;BME280;74539;43.518;1.504;2024-03-02T03:34:46;98675.38;;;19.14;39.01
84356;BME280;74539;43.518;1.504;2024-03-02T03:37:13;98665.66;;;19.13;39.72
84356;BME280;74539;43.518;1.504;2024-03-02T03:39:38;98665.22;;;19.11;40.34
84356;BME280;74539;43.518;1.504;2024-03-02T03:42:04;98669.03;;;19.10;39.78
84356;BME280;74539;43.518;1.504;2024-03-02T03:44:30;98663.63;;;19.10;39.29
84356;BME280;74539;43.518;1.504;2024-03-02T03:46:55;98654.25;;;19.07;38.96
84356;BME280;74539;43.518;1.504;2024-03-02T03:49:21;98658.53;;;19.08;38.79
84356;BME280;74539;43.518;1.504;2024-03-02T03:51:46;98654.25;;;19.07;40.00
84356;BME280;74539;43.518;1.504;2024-03-02T03:54:12;98650.31;;;19.05;39.05
84356;BME280;74539;43.518;1.504;2024-03-02T03:56:37;98637.75;;;19.00;39.39
84356;BME280;74539;43.518;1.504;2024-03-02T03:59:03;98643.31;;;19.04;40.25
84356;BME280;74539;43.518;1.504;2024-03-02T04:01:30;98636.66;;;19.01;39.22
84356;BME280;74539;43.518;1.504;2024-03-02T04:03:56;98628.41;;;18.97;39.46
84356;BME280;74539;43.518;1.504;2024-03-02T04:06:22;98628.41;;;18.97;39.22
84356;BME280;74539;43.518;1.504;2024-03-02T04:08:48;98624.13;;;18.96;39.82
84356;BME280;74539;43.518;1.504;2024-03-02T04:11:13;98629.53;;;18.96;39.89
84356;BME280;74539;43.518;1.504;2024-03-02T04:13:39;98631.56;;;18.99;40.36
84356;BME280;74539;43.518;1.504;2024-03-02T04:16:04;98623.00;;;18.97;40.45
84356;BME280;74539;43.518;1.504;2024-03-02T04:18:30;98616.00;;;18.96;40.40
84356;BME280;74539;43.518;1.504;2024-03-02T04:20:57;98609.69;;;18.92;39.23
84356;BME280;74539;43.518;1.504;2024-03-02T04:23:24;98625.91;;;18.92;39.34
84356;BME280;74539;43.518;1.504;2024-03-02T04:25:50;98619.72;;;18.92;39.89
84356;BME280;74539;43.518;1.504;2024-03-02T04:28:15;98620.41;;;18.89;40.08
84356;BME280;74539;43.518;1.504;2024-03-02T04:30:41;98605.72;;;18.90;39.03
84356;BME280;74539;43.518;1.504;2024-03-02T04:33:07;98607.19;;;18.87;40.11
84356;BME280;74539;43.518;1.504;2024-03-02T04:35:35;98614.19;;;18.88;39.89
84356;BME280;74539;43.518;1.504;2024-03-02T04:38:01;98598.94;;;18.84;39.18
84356;BME280;74539;43.518;1.504;2024-03-02T04:40:26;98597.03;;;18.84;39.55
84356;BME280;74539;43.518;1.504;2024-03-02T04:42:52;98595.47;;;18.83;40.20
84356;BME280;74539;43.518;1.504;2024-03-02T04:45:17;98593.53;;;18.84;39.66
84356;BME280;74539;43.518;1.504;2024-03-02T04:47:42;98597.38;;;18.83;39.95
84356;BME280;74539;43.518;1.504;2024-03-02T04:50:08;98591.97;;;18.83;39.55
84356;BME280;74539;43.518;1.504;2024-03-02T04:52:33;98593.88;;;18.82;40.40
84356;BME280;74539;43.518;1.504;2024-03-02T04:54:59;98593.41;;;18.80;38.81
84356;BME280;74539;43.518;1.504;2024-03-02T04:57:43;98591.38;;;18.77;39.62
84356;BME280;74539;43.518;1.504;2024-03-02T05:00:09;98588.34;;;18.79;39.07
84356;BME280;74539;43.518;1.504;2024-03-02T05:02:35;98588.69;;;18.77;38.88
84356;BME280;74539;43.518;1.504;2024-03-02T05:05:01;98587.91;;;18.76;40.27
84356;BME280;74539;43.518;1.504;2024-03-02T05:07:27;98584.41;;;18.76;39.98
84356;BME280;74539;43.518;1.504;2024-03-02T05:09:53;98580.09;;;18.75;40.10
84356;BME280;74539;43.518;1.504;2024-03-02T05:12:18;98568.84;;;18.73;39.43
84356;BME280;74539;43.518;1.504;2024-03-02T05:15:02;98571.53;;;18.73;39.03
84356;BME280;74539;43.518;1.504;2024-03-02T05:17:28;98561.00;;;18.71;39.10
84356;BME280;74539;43.518;1.504;2024-03-02T05:19:53;98561.00;;;18.71;39.68
84356;BME280;74539;43.518;1.504;2024-03-02T05:22:18;98555.97;;;18.70;39.73
84356;BME280;74539;43.518;1.504;2024-03-02T05:24:44;98550.09;;;18.68;39.58
84356;BME280;74539;43.518;1.504;2024-03-02T05:27:09;98551.19;;;18.67;39.51
84356;BME280;74539;43.518;1.504;2024-03-02T05:29:35;98550.09;;;18.68;38.80
84356;BME280;74539;43.518;1.504;2024-03-02T05:32:00;98537.22;;;18.65;39.34
84356;BME280;74539;43.518;1.504;2024-03-02T05:34:25;98536.09;;;18.66;40.36
84356;BME280;74539;43.518;1.504;2024-03-02T05:36:51;98539.94;;;18.65;40.06
84356;BME280;74539;43.518;1.504;2024-03-02T05:39:16;98524.69;;;18.60;39.64
84356;BME280;74539;43.518;1.504;2024-03-02T05:41:42;98531.34;;;18.63;39.94
84356;BME280;74539;43.518;1.504;2024-03-02T05:44:07;98525.16;;;18.62;39.18
84356;BME280;74539;43.518;1.504;2024-03-02T05:46:33;98523.44;;;18.58;39.99
84356;BME280;74539;43.518;1.504;2024-03-02T05:48:59;98525.81;;;18.59;39.61
84356;BME280;74539;43.518;1.504;2024-03-02T05:51:25;98514.91;;;18.56;40.18
84356;BME280;74539;43.518;1.504;2024-03-02T05:53:51;98506.09;;;18.59;39.61
84356;BME280;74539;43.518;1.504;2024-03-02T05:56:16;98504.75;;;18.52;40.38
84356;BME280;74539;43.518;1.504;2024-03-02T05:58:42;98511.06;;;18.57;39.38
84356;BME280;74539;43.518;1.504;2024-03-02T06:01:26;98515.69;;;18.56;39.13
84356;BME280;74539;43.518;1.504;2024-03-02T06:03:56;98502.47;;;18.54;40.41
84356;BME280;74539;43.518;1.504;2024-03-02T06:06:25;98489.50;;;18.48;39.07
84356;BME280;74539;43.518;1.504;2024-03-02T06:08:51;98480.63;;;18.47;40.44
84356;BME280;74539;43.518;1.504;2024-03-02T06:11:17;98485.34;;;18.50;39.10
84356;BME280;74539;43.518;1.504;2024-03-02T06:13:42;98474.53;;;18.50;39.27
84356;BME280;74539;43.518;1.504;2024-03-02T06:16:08;98462.16;;;18.49;39.92
84356;BME280;74539;43.518;1.504;2024-03-02T06:18:34;98452.44;;;18.48;40.89
84356;BME280;74539;43.518;1.504;2024-03-02T06:20:59;98460.56;;;18.48;40.29
84356;BME280;74539;43.518;1.504;2024-03-02T06:23:26;98464.38;;;18.47;40.37
84356;BME280;74539;43.518;1.504;2024-03-02T06:25:52;98455.03;;;18.45;39.33
84356;BME280;74539;43.518;1.504;2024-03-02T06:28:17;98450.41;;;18.45;39.65
84356;BME280;74539;43.518;1.504;2024-03-02T06:30:43;98438.69;;;18.41;39.66
84356;BME280;74539;43.518;1.504;2024-03-02T06:33:09;98432.16;;;18.42;40.50
84356;BME280;74539;43.518;1.504;2024-03-02T06:35:34;98435.31;;;18.44;39.28
84356;BME280;74539;43.518;1.504;2024-03-02T06:38:00;98434.84;;;18.42;39.39
84356;BME280;74539;43.518;1.504;2024-03-02T06:40:26;98432.50;;;18.41;39.55
84356;BME280;74539;43.518;1.504;2024-03-02T06:42:52;98431.72;;;18.40;40.19
84356;BME280;74539;43.518;1.504;2024-03-02T06:45:17;98435.53;;;18.39;39.46
84356;BME280;74539;43.518;1.504;2024-03-02T06:47:42;98430.13;;;18.39;39.19
84356;BME280;74539;43.518;1.504;2024-03-02T06:50:08;98416.16;;;18.37;40.20
84356;BME280;74539;43.518;1.504;2024-03-02T06:52:34;98418.41;;;18.35;39.58
84356;BME280;74539;43.518;1.504;2024-03-02T06:55:00;98400.63;;;18.34;39.50
84356;BME280;74539;43.518;1.504;2024-03-02T06:57:25;98407.59;;;18.35;40.38
84356;BME280;74539;43.518;1.504;2024-03-02T06:59:51;98411.44;;;18.34;39.99
84356;BME280;74539;43.518;1.504;2024-03-02T07:02:19;98413.34;;;18.34;40.04
84356;BME280;74539;43.518;1.504;2024-03-02T07:04:45;98400.16;;;18.32;40.27
84356;BME280;74539;43.518;1.504;2024-03-02T07:07:10;98393.84;;;18.28;40.22
84356;BME280;74539;43.518;1.504;2024-03-02T07:09:36;98397.78;;;18.30;40.83
84356;BME280;74539;43.518;1.504;2024-03-02T07:12:01;98396.66;;;18.31;40.23
84356;BME280;74539;43.518;1.504;2024-03-02T07:14:27;98395.88;;;18.31;40.56
84356;BME280;74539;43.518;1.504;2024-03-02T07:17:12;98394.28;;;18.30;40.11
84356;BME280;74539;43.518;1.504;2024-03-02T07:19:38;98394.19;;;18.26;39.41
84356;BME280;74539;43.518;1.504;2024-03-02T07:22:07;98400.47;;;18.30;40.09
84356;BME280;74539;43.518;1.504;2024-03-02T07:24:43;98393.84;;;18.28;39.83
84356;BME280;74539;43.518;1.504;2024-03-02T07:27:09;98398.91;;;18.29;39.95
84356;BME280;74539;43.518;1.504;2024-03-02T07:29:35;98387.97;;;18.26;39.52
84356;BME280;74539;43.518;1.504;2024-03-02T07:32:01;98381.00;;;18.25;39.61
84356;BME280;74539;43.518;1.504;2024-03-02T07:34:26;98384.16;;;18.27;40.58
84356;BME280;74539;43.518;1.504;2024-03-02T07:36:52;98384.16;;;18.27;39.79
84356;BME280;74539;43.518;1.504;2024-03-02T07:39:18;98380.34;;;18.28;39.08
84356;BME280;74539;43.518;1.504;2024-03-02T07:41:45;98372.56;;;18.26;39.78
84356;BME280;74539;43.518;1.504;2024-03-02T07:44:10;98360.94;;;18.26;40.57
84356;BME280;74539;43.518;1.504;2024-03-02T07:46:42;98369.53;;;18.28;39.77
84356;BME280;74539;43.518;1.504;2024-03-02T07:49:08;98364.13;;;18.28;39.67
84356;BME280;74539;43.518;1.504;2024-03-02T07:51:34;98355.66;;;18.29;40.37
84356;BME280;74539;43.518;1.504;2024-03-02T07:53:59;98362.31;;;18.32;40.95
84356;BME280;74539;43.518;1.504;2024-03-02T07:56:25;98359.59;;;18.32;39.06
84356;BME280;74539;43.518;1.504;2024-03-02T07:58:51;98348.31;;;18.30;40.01
84356;BME280;74539;43.518;1.504;2024-03-02T08:01:16;98342.59;;;18.31;40.32
84356;BME280;74539;43.518;1.504;2024-03-02T08:03:43;98348.78;;;18.32;40.61
84356;BME280;74539;43.518;1.504;2024-03-02T08:06:21;98345.75;;;18.34;40.67
84356;BME280;74539;43.518;1.504;2024-03-02T08:08:47;98327.16;;;18.32;40.15
84356;BME280;74539;43.518;1.504;2024-03-02T08:11:13;98321.75;;;18.32;40.03
84356;BME280;74539;43.518;1.504;2024-03-02T08:13:38;98321.09;;;18.35;39.42
84356;BME280;74539;43.518;1.504;2024-03-02T08:16:04;98309.38;;;18.31;40.25
84356;BME280;74539;43.518;1.504;2024-03-02T08:18:33;98327.28;;;18.36;40.26
84356;BME280;74539;43.518;1.504;2024-03-02T08:20:58;98317.25;;;18.36;40.82
84356;BME280;74539;43.518;1.504;2024-03-02T08:23:24;98310.25;;;18.35;39.46
84356;BME280;74539;43.518;1.504;2024-03-02T08:25:49;98302.63;;;18.37;39.32
84356;BME280;74539;43.518;1.504;2024-03-02T08:28:15;98309.59;;;18.38;39.39
84356;BME280;74539;43.518;1.504;2024-03-02T08:30:40;98298.00;;;18.38;39.80
84356;BME280;74539;43.518;1.504;2024-03-02T08:33:05;98294.94;;;18.39;40.65
84356;BME280;74539;43.518;1.504;2024-03-02T08:35:31;98285.47;;;18.33;40.73
84356;BME280;74539;43.518;1.504;2024-03-02T08:38:01;98289.88;;;18.38;39.57
84356;BME280;74539;43.518;1.504;2024-03-02T08:40:26;98294.50;;;18.37;39.48
84356;BME280;74539;43.518;1.504;2024-03-02T08:42:52;98288.63;;;18.35;39.85
84356;BME280;74539;43.518;1.504;2024-03-02T08:45:18;98284.78;;;18.36;40.36
84356;BME280;74539;43.518;1.504;2024-03-02T08:47:45;98284.00;;;18.36;40.64
84356;BME280;74539;43.518;1.504;2024-03-02T08:50:11;98280.19;;;18.37;40.94
84356;BME280;74539;43.518;1.504;2024-03-02T08:52:36;98280.97;;;18.37;39.14
84356;BME280;74539;43.518;1.504;2024-03-02T08:55:02;98270.84;;;18.34;40.00
84356;BME280;74539;43.518;1.504;2024-03-02T08:57:27;98266.22;;;18.35;40.65
84356;BME280;74539;43.518;1.504;2024-03-02T08:59:53;98260.03;;;18.34;40.97
84356;BME280;74539;43.518;1.504;2024-03-02T09:02:18;98240.19;;;18.30;40.38
84356;BME280;74539;43.518;1.504;2024-03-02T09:04:44;98255.41;;;18.35;39.25
84356;BME280;74539;43.518;1.504;2024-03-02T09:07:09;98251.47;;;18.32;39.64
84356;BME280;74539;43.518;1.504;2024-03-02T09:09:35;98250.31;;;18.33;40.60
84356;BME280;74539;43.518;1.504;2024-03-02T09:12:00;98243.69;;;18.30;40.22
84356;BME280;74539;43.518;1.504;2024-03-02T09:14:26;98241.44;;;18.33;39.75
84356;BME280;74539;43.518;1.504;2024-03-02T09:16:51;98230.53;;;18.29;40.77
84356;BME280;74539;43.518;1.504;2024-03-02T09:19:17;98236.38;;;18.31;40.03
84356;BME280;74539;43.518;1.504;2024-03-02T09:21:42;98234.78;;;18.30;40.27
84356;BME280;74539;43.518;1.504;2024-03-02T09:24:09;98235.94;;;18.29;40.47
84356;BME280;74539;43.518;1.504;2024-03-02T09:26:35;98229.84;;;18.32;41.20
84356;BME280;74539;43.518;1.504;2024-03-02T09:29:00;98234.47;;;18.31;39.93
84356;BME280;74539;43.518;1.504;2024-03-02T09:31:26;98228.16;;;18.27;40.39
84356;BME280;74539;43.518;1.504;2024-03-02T09:33:51;98229.84;;;18.32;39.60
84356;BME280;74539;43.518;1.504;2024-03-02T09:36:18;98224.44;;;18.32;40.96
84356;BME280;74539;43.518;1.504;2024-03-02T09:38:43;98218.25;;;18.31;41.04
84356;BME280;74539;43.518;1.504;2024-03-02T09:41:09;98217.47;;;18.31;41.02
84356;BME280;74539;43.518;1.504;2024-03-02T09:43:34;98205.06;;;18.30;40.45
84356;BME280;74539;43.518;1.504;2024-03-02T09:46:00;98197.63;;;18.27;40.74
84356;BME280;74539;43.518;1.504;2024-03-02T09:48:26;98201.25;;;18.31;40.12
84356;BME280;74539;43.518;1.504;2024-03-02T09:50:51;98183.44;;;18.30;40.16
84356;BME280;74539;43.518;1.504;2024-03-02T09:53:18;98176.47;;;18.29;40.32
84356;BME280;74539;43.518;1.504;2024-03-02T09:55:47;98173.41;;;18.30;40.37
84356;BME280;74539;43.518;1.504;2024-03-02T09:58:12;98173.31;;;18.27;40.03
84356;BME280;74539;43.518;1.504;2024-03-02T10:00:38;98168.81;;;18.31;40.31
84356;BME280;74539;43.518;1.504;2024-03-02T10:03:03;98163.41;;;18.31;40.83
84356;BME280;74539;43.518;1.504;2024-03-02T10:05:30;98164.50;;;18.30;40.56
84356;BME280;74539;43.518;1.504;2024-03-02T10:08:01;98164.50;;;18.30;40.39
84356;BME280;74539;43.518;1.504;2024-03-02T10:10:37;98165.66;;;18.29;41.51
84356;BME280;74539;43.518;1.504;2024-03-02T10:13:08;98163.28;;;18.27;41.45
84356;BME280;74539;43.518;1.504;2024-03-02T10:15:34;98161.03;;;18.29;41.94
84356;BME280;74539;43.518;1.504;2024-03-02T10:17:59;98160.94;;;18.26;40.67
84356;BME280;74539;43.518;1.504;2024-03-02T10:20:25;98158.69;;;18.28;40.60
84356;BME280;74539;43.518;1.504;2024-03-02T10:22:53;98157.09;;;18.27;40.86
84356;BME280;74539;43.518;1.504;2024-03-02T10:25:29;98146.28;;;18.27;40.96
84356;BME280;74539;43.518;1.504;2024-03-02T10:27:59;98131.19;;;18.26;41.82
84356;BME280;74539;43.518;1.504;2024-03-02T10:30:27;98126.13;;;18.24;41.74
84356;BME280;74539;43.518;1.504;2024-03-02T10:32:54;98119.13;;;18.23;41.10
84356;BME280;74539;43.518;1.504;2024-03-02T10:35:23;98125.31;;;18.24;41.13
84356;BME280;74539;43.518;1.504;2024-03-02T10:37:52;98119.91;;;18.24;41.91
84356;BME280;74539;43.518;1.504;2024-03-02T10:40:18;98122.97;;;18.22;40.82
84356;BME280;74539;43.518;1.504;2024-03-02T10:42:46;98118.34;;;18.23;40.76
84356;BME280;74539;43.518;1.504;2024-03-02T10:45:15;98123.75;;;18.23;40.80
84356;BME280;74539;43.518;1.504;2024-03-02T10:47:41;98110.16;;;18.19;40.56
84356;BME280;74539;43.518;1.504;2024-03-02T10:50:07;98105.97;;;18.22;41.93
84356;BME280;74539;43.518;1.504;2024-03-02T10:52:37;98102.16;;;18.23;40.75
84356;BME280;74539;43.518;1.504;2024-03-02T10:55:03;98079.19;;;18.17;42.17
84356;BME280;74539;43.518;1.504;2024-03-02T10:57:41;98083.56;;;18.21;41.06
84356;BME280;74539;43.518;1.504;2024-03-02T11:00:08;98085.94;;;18.23;42.16
84356;BME280;74539;43.518;1.504;2024-03-02T11:02:42;98084.38;;;18.22;40.89
84356;BME280;74539;43.518;1.504;2024-03-02T11:05:09;98080.06;;;18.21;41.70
84356;BME280;74539;43.518;1.504;2024-03-02T11:07:37;98084.38;;;18.22;41.91
84356;BME280;74539;43.518;1.504;2024-03-02T11:10:05;98077.38;;;18.21;41.52
84356;BME280;74539;43.518;1.504;2024-03-02T11:12:47;98078.06;;;18.18;40.93
84356;BME280;74539;43.518;1.504;2024-03-02T11:15:18;98074.56;;;18.17;41.74
84356;BME280;74539;43.518;1.504;2024-03-02T11:17:46;98067.34;;;18.21;41.25
84356;BME280;74539;43.518;1.504;2024-03-02T11:20:13;98054.19;;;18.20;41.51
84356;BME280;74539;43.518;1.504;2024-03-02T11:22:40;98053.41;;;18.19;41.81
84356;BME280;74539;43.518;1.504;2024-03-02T11:25:22;98048.78;;;18.20;40.83
84356;BME280;74539;43.518;1.504;2024-03-02T11:33:06;98025.59;;;18.19;41.83
84356;BME280;74539;43.518;1.504;2024-03-02T11:35:35;98009.38;;;18.19;42.58
84356;BME280;74539;43.518;1.504;2024-03-02T11:38:01;98014.78;;;18.19;42.18
84356;BME280;74539;43.518;1.504;2024-03-02T11:40:28;98011.63;;;18.17;41.35
84356;BME280;74539;43.518;1.504;2024-03-02T11:42:54;97998.91;;;18.17;41.74
84356;BME280;74539;43.518;1.504;2024-03-02T11:45:24;97996.63;;;18.19;42.85
84356;BME280;74539;43.518;1.504;2024-03-02T11:47:50;98006.31;;;18.20;42.33
84356;BME280;74539;43.518;1.504;2024-03-02T11:50:35;97988.44;;;18.16;42.48
84356;BME280;74539;43.518;1.504;2024-03-02T11:53:03;97991.25;;;18.19;42.46
84356;BME280;74539;43.518;1.504;2024-03-02T11:55:37;97987.75;;;18.19;42.11
84356;BME280;74539;43.518;1.504;2024-03-02T11:58:05;97981.53;;;18.18;41.74
84356;BME280;74539;43.518;1.504;2024-03-02T12:00:31;97976.13;;;18.18;42.01
84356;BME280;74539;43.518;1.504;2024-03-02T12:03:08;97974.56;;;18.17;42.22
84356;BME280;74539;43.518;1.504;2024-03-02T12:05:34;97976.94;;;18.19;42.37
84356;BME280;74539;43.518;1.504;2024-03-02T12:08:02;97968.38;;;18.17;41.34
84356;BME280;74539;43.518;1.504;2024-03-02T12:10:28;97951.47;;;18.20;42.40
84356;BME280;74539;43.518;1.504;2024-03-02T12:13:02;97933.69;;;18.19;41.50
84356;BME280;74539;43.518;1.504;2024-03-02T12:15:31;97933.69;;;18.19;41.87
84356;BME280;74539;43.518;1.504;2024-03-02T12:17:59;97932.88;;;18.18;40.96
84356;BME280;74539;43.518;1.504;2024-03-02T12:20:30;97921.31;;;18.18;43.08
84356;BME280;74539;43.518;1.504;2024-03-02T12:22:57;97908.22;;;18.20;43.01
84356;BME280;74539;43.518;1.504;2024-03-02T12:25:24;97895.41;;;18.17;42.39
84356;BME280;74539;43.518;1.504;2024-03-02T12:27:52;97895.06;;;18.18;42.35
84356;BME280;74539;43.518;1.504;2024-03-02T12:30:19;97899.34;;;18.19;43.01
84356;BME280;74539;43.518;1.504;2024-03-02T12:32:45;97894.28;;;18.18;42.06
84356;BME280;74539;43.518;1.504;2024-03-02T12:35:11;97900.13;;;18.20;43.08
84356;BME280;74539;43.518;1.504;2024-03-02T12:37:52;97892.03;;;18.20;43.19
84356;BME280;74539;43.518;1.504;2024-03-02T12:40:18;97882.00;;;18.20;41.64
84356;BME280;74539;43.518;1.504;2024-03-02T12:42:45;97875.81;;;18.20;41.68
84356;BME280;74539;43.518;1.504;2024-03-02T12:45:12;97856.03;;;18.16;41.45
84356;BME280;74539;43.518;1.504;2024-03-02T12:47:39;97850.63;;;18.16;42.71
84356;BME280;74539;43.518;1.504;2024-03-02T12:50:05;97853.41;;;18.19;43.28
84356;BME280;74539;43.518;1.504;2024-03-02T12:52:31;97860.72;;;18.19;42.77
84356;BME280;74539;43.518;1.504;2024-03-02T12:54:59;97844.50;;;18.19;41.73
84356;BME280;74539;43.518;1.504;2024-03-02T12:57:32;97844.84;;;18.17;42.40
84356;BME280;74539;43.518;1.504;2024-03-02T13:00:03;97835.97;;;18.17;42.68
84356;BME280;74539;43.518;1.504;2024-03-02T13:02:41;97828.31;;;18.19;42.33